Time;durP1;ratioP1;P1;durP2;ratioP2;P2;SDS_P1;SDS_P2;PMS_P1;PMS_P2;Temp;Humidity;BMP_temperature;BMP_pressure;BME280_temperature;BME280_humidity;BME280_pressure;Samples;Min_cycle;Max_cycle;Signal;HPM_P1;HPM_P2
2021/10/23 00:01:33;;;;;;;20.95;8.95;;;;;;;7.06;94.47;102189.66;4970109;28;20475;-77
2021/10/23 00:03:58;;;;;;;22.92;9.55;;;;;;;7.13;94.94;102201.22;4972158;28;20289;-77
2021/10/23 00:06:24;;;;;;;14.60;8.75;;;;;;;7.12;94.71;102194.41;4989831;28;20026;-77
2021/10/23 00:08:49;;;;;;;27.58;10.27;;;;;;;7.09;95.36;102200.59;5004493;28;20029;-77
2021/10/23 00:11:15;;;;;;;20.98;8.95;;;;;;;7.11;95.05;102200.50;4972331;28;20505;-77
2021/10/23 00:13:40;;;;;;;17.13;8.52;;;;;;;7.07;95.14;102199.88;5005264;28;20019;-77
2021/10/23 00:16:07;;;;;;;16.40;8.35;;;;;;;7.06;95.38;102200.78;5005127;28;20046;-77
2021/10/23 00:18:33;;;;;;;18.00;8.90;;;;;;;7.06;95.40;102208.50;5004159;28;20034;-77
2021/10/23 00:20:58;;;;;;;27.95;8.90;;;;;;;7.06;95.75;102212.84;4971640;28;20197;-78
2021/10/23 00:23:24;;;;;;;15.70;9.20;;;;;;;7.03;95.82;102208.72;4991510;28;20041;-76
2021/10/23 00:25:49;;;;;;;22.45;9.25;;;;;;;7.05;95.85;102204.31;4989243;28;20038;-77
2021/10/23 00:28:15;;;;;;;15.48;7.97;;;;;;;7.07;95.94;102207.59;4976690;28;20038;-77
2021/10/23 00:30:40;;;;;;;15.48;9.15;;;;;;;7.08;95.87;102221.31;4974800;28;20033;-78
2021/10/23 00:33:06;;;;;;;21.25;9.95;;;;;;;7.06;95.58;102221.41;4967126;28;20243;-77
2021/10/23 00:35:32;;;;;;;18.15;10.52;;;;;;;7.05;95.73;102213.81;4988036;28;20033;-76
2021/10/23 00:37:57;;;;;;;17.42;9.43;;;;;;;7.01;95.55;102218.31;5004606;28;20544;-76
2021/10/23 00:40:23;;;;;;;21.35;9.80;;;;;;;6.98;95.69;102232.22;4987778;28;20037;-77
2021/10/23 00:42:49;;;;;;;20.27;11.43;;;;;;;7.00;95.79;102234.72;4960643;28;20034;-77
2021/10/23 00:45:15;;;;;;;17.83;10.23;;;;;;;6.97;95.40;102237.50;4996126;28;20406;-77
2021/10/23 00:47:40;;;;;;;21.60;10.52;;;;;;;6.98;95.61;102237.38;4996334;28;20040;-77
2021/10/23 00:50:06;;;;;;;24.05;10.85;;;;;;;6.97;95.46;102245.25;4989557;28;20048;-76
2021/10/23 00:52:47;;;;;;;20.90;11.23;;;;;;;6.95;95.25;102253.06;5087014;27;20614;-71
2021/10/23 00:55:13;;;;;;;21.15;12.05;;;;;;;6.97;95.32;102253.81;5083524;28;20213;-71
2021/10/23 00:57:38;;;;;;;22.50;10.95;;;;;;;6.96;95.55;102254.72;5086369;28;20039;-70
2021/10/23 01:00:07;;;;;;;26.50;12.38;;;;;;;7.06;95.79;102254.94;5105067;28;20469;-70
2021/10/23 01:02:32;;;;;;;20.52;11.35;;;;;;;7.05;95.57;102260.22;5104601;28;20031;-70
2021/10/23 01:04:57;;;;;;;24.30;10.85;;;;;;;7.00;95.70;102260.50;5124982;22;20024;-78
2021/10/23 01:07:24;;;;;;;27.33;12.45;;;;;;;7.05;95.73;102261.03;5059881;28;20037;-76
2021/10/23 01:09:50;;;;;;;22.90;12.73;;;;;;;7.06;95.93;102252.38;5055953;28;20049;-76
2021/10/23 01:12:15;;;;;;;23.27;11.93;;;;;;;7.02;95.94;102249.16;5044594;28;20517;-78
2021/10/23 01:14:43;;;;;;;21.92;11.88;;;;;;;6.99;96.05;102245.97;5044019;28;20041;-78
2021/10/23 01:17:09;;;;;;;27.77;12.27;;;;;;;6.98;96.36;102249.47;5042777;28;21446;-78
2021/10/23 01:19:35;;;;;;;29.98;14.07;;;;;;;6.99;96.58;102245.97;5054427;28;20039;-76
2021/10/23 01:22:01;;;;;;;24.48;13.07;;;;;;;7.00;96.57;102255.34;5042568;28;20087;-78
2021/10/23 01:24:27;;;;;;;29.45;13.50;;;;;;;7.04;96.75;102248.25;5043619;28;20033;-76
2021/10/23 01:26:53;;;;;;;28.85;13.75;;;;;;;7.03;96.94;102255.16;5038617;28;20036;-76
2021/10/23 01:29:20;;;;;;;21.77;12.80;;;;;;;7.01;96.66;102257.84;5058480;28;20037;-76
2021/10/23 01:31:48;;;;;;;24.35;13.07;;;;;;;7.03;96.97;102252.59;5047808;28;20048;-78
2021/10/23 01:34:19;;;;;;;31.85;14.27;;;;;;;7.11;96.72;102252.91;5040463;28;20037;-78
2021/10/23 01:36:48;;;;;;;33.63;15.25;;;;;;;7.12;96.98;102256.31;5043591;28;20123;-78
2021/10/23 01:39:14;;;;;;;26.10;14.18;;;;;;;7.14;97.07;102245.00;5057375;28;20096;-76
2021/10/23 01:41:39;;;;;;;32.78;14.82;;;;;;;7.19;96.78;102249.84;5040140;28;20021;-76
2021/10/23 01:44:07;;;;;;;30.60;15.38;;;;;;;7.14;96.85;102234.66;5057248;28;20033;-76
2021/10/23 01:46:33;;;;;;;30.55;15.27;;;;;;;7.12;97.29;102231.38;5059587;28;20497;-76
2021/10/23 01:48:59;;;;;;;35.63;14.80;;;;;;;7.21;97.01;102240.25;5035996;28;20028;-76
2021/10/23 01:51:26;;;;;;;27.90;15.07;;;;;;;7.16;97.20;102235.41;5057061;28;20890;-76
2021/10/23 01:53:51;;;;;;;31.55;13.43;;;;;;;7.15;97.17;102249.22;5058139;28;20032;-76
2021/10/23 01:56:17;;;;;;;28.95;14.82;;;;;;;7.14;97.38;102242.41;5043899;28;20413;-76
2021/10/23 01:58:42;;;;;;;27.95;14.48;;;;;;;7.17;97.51;102247.34;5042268;28;20444;-76
2021/10/23 02:01:08;;;;;;;29.80;13.85;;;;;;;7.17;97.33;102246.53;5041002;28;20033;-76
2021/10/23 02:03:33;;;;;;;32.60;15.23;;;;;;;7.21;97.49;102230.78;5048490;28;20107;-76
2021/10/23 02:05:58;;;;;;;36.90;16.15;;;;;;;7.22;97.34;102232.41;5030022;28;20029;-76
2021/10/23 02:08:24;;;;;;;31.05;14.68;;;;;;;7.16;97.29;102229.41;5045473;28;20056;-76
2021/10/23 02:10:49;;;;;;;41.20;16.70;;;;;;;7.17;97.41;102231.88;5028620;28;20037;-76
2021/10/23 02:13:15;;;;;;;27.50;14.98;;;;;;;7.20;97.11;102230.88;5044498;28;20071;-77
2021/10/23 02:15:40;;;;;;;28.88;14.23;;;;;;;7.16;97.15;102225.06;5046267;28;20524;-78
2021/10/23 02:18:06;;;;;;;31.95;14.45;;;;;;;7.11;97.13;102229.69;5046175;28;20059;-77
2021/10/23 02:20:34;;;;;;;31.33;12.80;;;;;;;7.08;97.15;102237.63;5043479;28;20034;-76
2021/10/23 02:23:01;;;;;;;26.42;13.48;;;;;;;7.07;97.51;102230.00;5028988;28;20059;-76
2021/10/23 02:25:26;;;;;;;30.23;13.30;;;;;;;7.04;97.43;102222.44;5021460;28;20034;-76
2021/10/23 02:27:52;;;;;;;35.28;15.80;;;;;;;7.06;97.66;102220.59;5018373;28;20075;-75
2021/10/23 02:30:17;;;;;;;29.33;14.52;;;;;;;7.03;97.45;102221.63;5040159;28;20026;-76
2021/10/23 02:32:43;;;;;;;28.77;13.50;;;;;;;7.00;97.57;102222.63;5045047;28;20037;-76
2021/10/23 02:35:09;;;;;;;30.25;15.15;;;;;;;7.01;97.64;102220.91;5028489;28;20025;-76
2021/10/23 02:37:35;;;;;;;36.55;15.88;;;;;;;7.04;97.55;102223.28;5029152;28;20068;-76
2021/10/23 02:40:01;;;;;;;33.03;16.52;;;;;;;7.02;97.63;102215.63;5028241;28;20036;-76
2021/10/23 02:42:26;;;;;;;32.88;16.63;;;;;;;7.04;97.17;102214.72;5043613;28;20064;-76
2021/10/23 02:44:52;;;;;;;33.13;15.85;;;;;;;7.06;97.44;102220.59;5029031;28;20581;-76
2021/10/23 02:47:17;;;;;;;39.13;17.90;;;;;;;7.13;97.33;102227.03;5028461;28;20040;-75
2021/10/23 02:49:43;;;;;;;41.13;17.58;;;;;;;7.16;97.51;102221.69;5029877;28;20041;-78
2021/10/23 02:52:09;;;;;;;32.30;16.55;;;;;;;7.13;97.48;102225.25;5042887;28;20025;-75
2021/10/23 02:54:34;;;;;;;40.20;17.80;;;;;;;7.13;97.76;102230.41;5026894;28;20038;-75
2021/10/23 02:57:00;;;;;;;33.53;15.73;;;;;;;7.09;97.85;102234.13;5028791;28;20504;-76
2021/10/23 02:59:25;;;;;;;35.08;15.57;;;;;;;7.09;98.00;102238.47;5023850;28;20486;-76
2021/10/23 03:01:51;;;;;;;36.38;17.38;;;;;;;7.08;98.10;102240.19;5023874;28;20033;-77
2021/10/23 03:04:16;;;;;;;35.80;17.40;;;;;;;7.11;98.17;102252.09;5044581;28;20037;-77
2021/10/23 03:06:44;;;;;;;39.17;18.20;;;;;;;7.18;98.31;102254.19;5028065;28;20048;-77
2021/10/23 03:09:11;;;;;;;38.65;17.52;;;;;;;7.13;98.04;102263.13;5026229;28;20083;-77
2021/10/23 03:11:37;;;;;;;37.50;17.52;;;;;;;7.09;98.33;102265.09;5028438;28;20120;-78
2021/10/23 03:14:03;;;;;;;36.08;17.27;;;;;;;7.08;98.19;102270.34;5043785;28;20029;-77
2021/10/23 03:16:28;;;;;;;38.40;16.02;;;;;;;7.06;98.43;102270.44;5029553;28;20025;-78
2021/10/23 03:18:54;;;;;;;37.40;17.75;;;;;;;7.05;98.42;102271.38;5044757;28;20039;-77
2021/10/23 03:21:19;;;;;;;45.25;17.60;;;;;;;7.05;98.64;102261.03;5027296;28;20028;-77
2021/10/23 03:23:45;;;;;;;44.80;18.08;;;;;;;7.04;98.59;102264.53;5029965;28;20509;-78
2021/10/23 03:26:10;;;;;;;35.17;16.77;;;;;;;7.02;98.71;102264.63;5030329;28;20033;-76
2021/10/23 03:28:36;;;;;;;35.97;17.45;;;;;;;7.04;98.63;102274.84;5044243;28;20041;-75
2021/10/23 03:31:01;;;;;;;40.15;18.55;;;;;;;7.05;98.65;102270.53;5027179;28;20532;-78
2021/10/23 03:33:27;;;;;;;34.08;18.02;;;;;;;7.04;98.88;102269.69;5044341;28;20466;-78
2021/10/23 03:35:52;;;;;;;35.88;17.30;;;;;;;7.03;98.62;102270.63;5027709;28;20079;-76
2021/10/23 03:38:18;;;;;;;30.35;15.55;;;;;;;7.06;98.89;102280.75;5042871;28;20037;-76
2021/10/23 03:40:43;;;;;;;33.10;16.23;;;;;;;7.05;98.63;102270.53;5027353;28;20029;-77
2021/10/23 03:43:09;;;;;;;34.05;17.48;;;;;;;7.05;98.60;102278.28;5027599;28;20486;-76
2021/10/23 03:45:36;;;;;;;31.55;17.15;;;;;;;7.03;98.48;102283.53;5008090;28;20083;-76
2021/10/23 03:48:01;;;;;;;30.92;15.13;;;;;;;7.02;98.36;102279.28;5026705;28;20449;-76
2021/10/23 03:50:28;;;;;;;36.17;17.05;;;;;;;7.00;98.36;102289.69;5029172;28;20136;-76
2021/10/23 03:52:55;;;;;;;33.67;16.30;;;;;;;6.99;98.37;102290.63;5026889;28;20083;-76
2021/10/23 03:55:20;;;;;;;34.42;17.33;;;;;;;6.99;98.54;102289.81;5027332;28;20038;-76
2021/10/23 03:57:47;;;;;;;35.08;16.15;;;;;;;6.99;98.18;102285.47;5044105;28;20057;-76
2021/10/23 04:00:13;;;;;;;33.00;17.10;;;;;;;6.95;98.07;102293.47;5026246;28;20021;-77
2021/10/23 04:02:40;;;;;;;31.52;15.02;;;;;;;6.91;98.02;102290.28;5042005;28;20310;-76
2021/10/23 04:05:07;;;;;;;36.92;14.80;;;;;;;6.90;97.87;102286.03;5028345;28;20037;-76
2021/10/23 04:07:33;;;;;;;29.90;14.10;;;;;;;6.88;98.04;102280.16;5042123;28;21392;-76
2021/10/23 04:09:58;;;;;;;25.05;14.63;;;;;;;6.85;97.75;102282.09;5026385;28;20080;-76
2021/10/23 04:12:25;;;;;;;31.10;14.75;;;;;;;6.82;97.89;102290.88;5027183;28;20028;-76
2021/10/23 04:14:50;;;;;;;28.85;14.20;;;;;;;6.78;97.59;102279.91;5041983;28;20029;-76
2021/10/23 04:17:16;;;;;;;36.00;16.92;;;;;;;6.76;97.28;102283.50;5041585;28;20029;-77
2021/10/23 04:19:42;;;;;;;35.15;16.60;;;;;;;6.72;97.23;102293.16;5020896;28;20508;-75
2021/10/23 04:22:09;;;;;;;28.30;15.80;;;;;;;6.69;97.37;102305.44;5041694;28;20450;-78
2021/10/23 04:24:35;;;;;;;40.38;17.75;;;;;;;6.68;97.18;102307.16;5041865;28;20033;-76
2021/10/23 04:27:01;;;;;;;34.00;16.35;;;;;;;6.63;96.60;102304.06;5025539;28;20752;-76
2021/10/23 04:29:26;;;;;;;33.47;16.38;;;;;;;6.62;96.78;102312.69;5040851;28;20231;-78
2021/10/23 04:31:52;;;;;;;28.63;15.32;;;;;;;6.60;96.78;102312.78;5037389;28;20065;-76
2021/10/23 04:34:17;;;;;;;34.90;17.08;;;;;;;6.59;96.74;102310.28;5044207;28;20037;-76
2021/10/23 04:36:43;;;;;;;42.00;18.92;;;;;;;6.60;96.78;102306.81;5028823;28;20044;-78
2021/10/23 04:39:09;;;;;;;35.63;17.77;;;;;;;6.56;96.94;102313.91;5028474;28;20462;-76
2021/10/23 04:41:36;;;;;;;35.47;18.58;;;;;;;6.54;96.73;102305.44;5025782;28;20103;-78
2021/10/23 04:44:02;;;;;;;42.33;18.35;;;;;;;6.53;96.71;102311.50;5047132;28;20042;-79
2021/10/23 04:46:27;;;;;;;35.55;18.13;;;;;;;6.51;96.77;102307.38;5026483;28;20036;-77
2021/10/23 04:48:53;;;;;;;40.63;19.35;;;;;;;6.50;97.24;102306.53;5026187;28;20034;-77
2021/10/23 04:51:18;;;;;;;41.70;19.73;;;;;;;6.49;97.06;102301.47;5042773;28;20054;-79
2021/10/23 04:53:44;;;;;;;41.17;20.23;;;;;;;6.54;96.83;102302.03;5050290;28;20071;-79
2021/10/23 04:56:09;;;;;;;47.22;20.52;;;;;;;6.50;97.05;102293.66;5038455;28;20033;-76
2021/10/23 04:58:38;;;;;;;40.63;19.85;;;;;;;6.44;97.12;102294.00;5036744;28;20125;-79
2021/10/23 05:01:04;;;;;;;39.83;18.75;;;;;;;6.43;96.78;102297.53;5033695;28;20029;-79
2021/10/23 05:03:30;;;;;;;50.03;22.90;;;;;;;6.48;96.90;102302.38;5047097;28;20398;-78
2021/10/23 05:05:57;;;;;;;42.20;20.10;;;;;;;6.41;97.21;102297.59;5044591;28;20025;-76
2021/10/23 05:08:23;;;;;;;42.45;20.45;;;;;;;6.39;97.04;102296.88;5044092;28;20378;-77
2021/10/23 05:10:50;;;;;;;43.47;21.70;;;;;;;6.42;97.01;102295.84;5041584;28;20026;-78
2021/10/23 05:13:15;;;;;;;47.22;22.67;;;;;;;6.49;96.84;102309.22;5043134;28;20565;-76
2021/10/23 05:15:41;;;;;;;43.35;21.17;;;;;;;6.43;97.04;102306.06;5028732;28;20121;-80
2021/10/23 05:18:06;;;;;;;44.08;19.52;;;;;;;6.35;97.14;102310.06;5039756;28;20540;-80
2021/10/23 05:20:32;;;;;;;44.58;20.65;;;;;;;6.33;97.15;102314.44;5049417;28;20063;-78
2021/10/23 05:22:58;;;;;;;45.90;21.08;;;;;;;6.30;97.08;102306.91;5042668;28;20017;-78
2021/10/23 05:25:23;;;;;;;47.95;23.55;;;;;;;6.30;97.25;102317.22;5021253;28;20363;-79
2021/10/23 05:27:49;;;;;;;53.83;23.92;;;;;;;6.26;97.71;102319.13;5041497;28;20037;-78
2021/10/23 05:30:15;;;;;;;51.15;22.52;;;;;;;6.27;97.80;102318.22;5042503;28;20052;-80
2021/10/23 05:32:40;;;;;;;49.70;24.58;;;;;;;6.33;97.39;102323.00;5048334;28;20509;-79
2021/10/23 05:35:07;;;;;;;49.28;23.15;;;;;;;6.26;97.33;102318.31;5040657;28;20051;-81
2021/10/23 05:37:32;;;;;;;53.15;23.30;;;;;;;6.22;97.74;102317.66;5039775;28;20079;-80
2021/10/23 05:39:58;;;;;;;45.53;23.15;;;;;;;6.22;97.76;102321.06;5035068;28;20037;-80
2021/10/23 05:42:24;;;;;;;52.67;24.40;;;;;;;6.17;97.62;102325.66;5038702;28;20052;-80
2021/10/23 05:44:50;;;;;;;51.50;23.33;;;;;;;6.20;97.79;102327.25;5054238;28;20041;-80
2021/10/23 05:47:15;;;;;;;49.13;22.33;;;;;;;6.18;97.69;102319.59;5022617;28;20032;-81
2021/10/23 05:49:41;;;;;;;57.55;25.73;;;;;;;6.18;97.82;102329.91;5042633;28;20041;-80
2021/10/23 05:52:06;;;;;;;57.55;25.75;;;;;;;6.21;98.34;102334.03;5038758;28;20025;-80
2021/10/23 05:54:38;;;;;;;48.28;23.83;;;;;;;6.19;98.22;102328.97;5051644;28;20033;-80
2021/10/23 05:57:08;;;;;;;51.25;24.05;;;;;;;6.18;97.94;102339.38;5050730;28;20466;-81
2021/10/23 05:59:37;;;;;;;49.63;23.88;;;;;;;6.13;98.35;102342.22;5035827;28;20036;-81
2021/10/23 06:02:11;;;;;;;43.97;21.20;;;;;;;6.12;98.59;102342.28;5018037;28;20022;-81
2021/10/23 06:04:37;;;;;;;44.60;21.88;;;;;;;6.10;98.51;102352.69;5052844;28;20044;-81
2021/10/23 06:07:05;;;;;;;54.40;24.45;;;;;;;6.14;98.62;102353.34;5049225;28;20029;-80
2021/10/23 06:09:31;;;;;;;46.92;23.05;;;;;;;6.13;98.77;102355.09;5052191;28;20033;-80
2021/10/23 06:12:01;;;;;;;51.00;23.33;;;;;;;6.11;98.98;102354.34;5051362;28;20044;-81
2021/10/23 06:14:27;;;;;;;54.88;25.63;;;;;;;6.21;99.07;102349.47;5053350;28;20040;-80
2021/10/23 06:16:52;;;;;;;57.50;25.10;;;;;;;6.24;98.88;102363.03;5055648;28;20034;-80
2021/10/23 06:19:18;;;;;;;56.38;25.27;;;;;;;6.29;98.83;102356.75;5058616;28;20063;-81
2021/10/23 06:21:43;;;;;;;55.92;24.60;;;;;;;6.41;99.04;102353.47;5053129;28;20044;-80
2021/10/23 06:24:08;;;;;;;54.22;24.63;;;;;;;6.45;99.05;102362.69;5056230;28;20160;-81
2021/10/23 06:26:34;;;;;;;58.83;25.40;;;;;;;6.42;98.85;102365.44;5042128;28;20040;-80
2021/10/23 06:28:59;;;;;;;48.45;23.73;;;;;;;6.42;99.46;102358.56;5043529;28;20033;-81
2021/10/23 06:31:25;;;;;;;56.83;24.45;;;;;;;6.47;99.25;102357.44;5053079;28;20029;-80
2021/10/23 06:33:51;;;;;;;54.15;24.70;;;;;;;6.61;99.14;102362.59;5040393;28;20456;-80
2021/10/23 06:36:16;;;;;;;57.13;26.67;;;;;;;6.56;98.99;102370.59;5049643;28;20037;-80
2021/10/23 06:38:42;;;;;;;74.25;34.00;;;;;;;6.63;99.00;102377.06;5036576;28;20033;-80
2021/10/23 06:41:07;;;;;;;57.00;25.25;;;;;;;6.62;99.21;102388.28;5037565;28;20410;-81
2021/10/23 06:43:33;;;;;;;52.35;24.30;;;;;;;6.70;99.26;102387.00;5054841;28;20026;-81
2021/10/23 06:45:59;;;;;;;49.78;23.30;;;;;;;6.68;98.95;102392.22;5021703;28;20133;-80
2021/10/23 06:48:24;;;;;;;49.40;24.58;;;;;;;6.74;98.98;102393.63;5056102;28;20045;-81
2021/10/23 06:50:50;;;;;;;57.35;26.08;;;;;;;6.83;98.88;102401.63;5039357;28;20037;-80
2021/10/23 06:53:16;;;;;;;51.25;24.77;;;;;;;6.88;99.11;102401.38;5037956;28;20045;-82
2021/10/23 06:55:42;;;;;;;53.47;24.45;;;;;;;6.86;99.04;102398.06;5039086;28;20037;-82
2021/10/23 06:58:08;;;;;;;50.70;23.60;;;;;;;6.90;99.09;102396.94;5037913;28;20084;-81
2021/10/23 07:00:33;;;;;;;49.80;24.70;;;;;;;6.94;99.15;102408.72;5056493;28;20124;-79
2021/10/23 07:02:59;;;;;;;48.97;22.75;;;;;;;6.95;99.33;102410.41;5055450;28;20261;-80
2021/10/23 07:05:26;;;;;;;51.38;25.65;;;;;;;7.01;99.48;102414.34;5025717;28;20037;-81
2021/10/23 07:07:52;;;;;;;52.08;24.38;;;;;;;7.05;99.40;102418.41;5042511;28;20029;-82
2021/10/23 07:10:18;;;;;;;52.65;24.83;;;;;;;7.08;99.56;102420.75;5057714;28;20534;-80
2021/10/23 07:12:43;;;;;;;48.88;24.48;;;;;;;7.12;99.44;102434.31;5039761;28;20033;-80
2021/10/23 07:15:09;;;;;;;52.40;24.77;;;;;;;7.14;99.53;102433.31;5054440;28;20048;-82
2021/10/23 07:17:34;;;;;;;53.17;24.13;;;;;;;7.17;99.68;102443.44;5057035;28;20029;-81
2021/10/23 07:20:00;;;;;;;49.72;24.30;;;;;;;7.20;99.53;102443.25;5057881;28;20126;-81
2021/10/23 07:22:26;;;;;;;47.60;23.10;;;;;;;7.28;99.74;102452.28;5056742;28;20155;-81
2021/10/23 07:24:52;;;;;;;53.30;25.00;;;;;;;7.33;99.85;102450.25;5055560;28;20041;-81
2021/10/23 07:27:17;;;;;;;53.42;25.52;;;;;;;7.40;99.37;102461.84;5056229;28;20025;-80
2021/10/23 07:29:43;;;;;;;53.13;25.15;;;;;;;7.43;99.25;102466.81;5053736;28;20040;-80
2021/10/23 07:32:09;;;;;;;49.22;24.45;;;;;;;7.46;99.14;102474.38;5051201;28;20521;-79
2021/10/23 07:34:34;;;;;;;46.75;22.63;;;;;;;7.52;99.35;102470.59;5052753;28;20030;-79
2021/10/23 07:37:00;;;;;;;51.47;25.35;;;;;;;7.61;99.04;102472.59;5050777;28;20080;-79
2021/10/23 07:39:26;;;;;;;46.55;23.80;;;;;;;7.74;98.89;102470.06;5034650;28;20537;-80
2021/10/23 07:41:51;;;;;;;48.00;23.92;;;;;;;7.78;98.60;102469.78;5017772;28;20030;-79
2021/10/23 07:44:17;;;;;;;41.35;22.23;;;;;;;7.93;98.80;102469.72;5049318;28;20040;-79
2021/10/23 07:46:43;;;;;;;50.80;24.05;;;;;;;8.05;98.68;102484.44;5048003;28;20032;-79
2021/10/23 07:49:09;;;;;;;52.90;23.08;;;;;;;8.16;98.46;102484.59;5032685;28;20037;-79
2021/10/23 07:51:36;;;;;;;46.22;22.17;;;;;;;8.19;98.27;102486.97;5035368;28;20066;-79
2021/10/23 07:54:04;;;;;;;43.42;22.02;;;;;;;8.25;98.10;102490.06;5046130;28;20037;-79
2021/10/23 07:56:30;;;;;;;43.38;23.05;;;;;;;8.27;97.89;102496.81;5044183;28;20467;-78
2021/10/23 07:58:55;;;;;;;45.88;22.60;;;;;;;8.32;97.44;102496.50;5028750;28;20029;-78
2021/10/23 08:01:21;;;;;;;47.00;23.17;;;;;;;8.34;97.26;102502.41;5028000;28;20030;-78
2021/10/23 08:03:46;;;;;;;50.72;23.30;;;;;;;8.43;97.31;102501.03;5042045;28;20100;-78
2021/10/23 08:06:12;;;;;;;47.53;21.88;;;;;;;8.46;97.45;102504.22;5027291;28;20429;-78
2021/10/23 08:08:37;;;;;;;42.20;21.23;;;;;;;8.48;97.37;102506.72;5041299;28;20646;-78
2021/10/23 08:11:04;;;;;;;41.45;21.13;;;;;;;8.57;97.46;102514.69;5024691;28;20385;-78
2021/10/23 08:13:31;;;;;;;45.17;23.45;;;;;;;8.71;97.25;102513.78;5025180;28;20052;-78
2021/10/23 08:15:58;;;;;;;49.97;22.23;;;;;;;8.92;96.80;102508.09;5027538;28;20041;-78
2021/10/23 08:18:24;;;;;;;41.53;21.55;;;;;;;8.95;95.84;102515.66;5027250;28;20021;-76
2021/10/23 08:20:50;;;;;;;41.28;20.42;;;;;;;9.04;95.66;102517.63;5027111;28;20144;-77
2021/10/23 08:23:16;;;;;;;42.78;20.33;;;;;;;9.13;94.62;102527.34;5021881;28;20029;-77
2021/10/23 08:25:42;;;;;;;40.63;20.33;;;;;;;9.25;94.83;102528.28;5043237;28;20052;-77
2021/10/23 08:28:07;;;;;;;33.78;18.73;;;;;;;9.29;94.82;102521.97;5019031;28;20402;-77
2021/10/23 08:30:33;;;;;;;42.53;20.35;;;;;;;9.42;94.13;102528.84;5041890;28;20041;-76
2021/10/23 08:32:59;;;;;;;34.50;19.05;;;;;;;9.43;92.94;102531.34;5026599;28;20111;-77
2021/10/23 08:35:25;;;;;;;36.92;18.83;;;;;;;9.58;92.92;102528.63;5030735;28;20037;-80
2021/10/23 08:37:52;;;;;;;35.42;18.30;;;;;;;9.63;92.77;102522.19;5042755;28;20064;-81
2021/10/23 08:40:18;;;;;;;34.53;18.30;;;;;;;9.80;90.52;102525.38;5051660;28;20383;-81
2021/10/23 08:42:43;;;;;;;31.30;16.83;;;;;;;9.92;89.98;102527.88;5052144;28;20025;-80
2021/10/23 08:45:11;;;;;;;33.85;18.23;;;;;;;9.98;89.76;102531.81;5011263;28;20452;-80
2021/10/23 08:47:39;;;;;;;30.25;17.17;;;;;;;9.99;89.32;102533.47;5040413;28;20486;-79
2021/10/23 08:50:06;;;;;;;38.45;17.95;;;;;;;9.98;89.27;102536.19;5046346;28;20045;-80
2021/10/23 08:52:32;;;;;;;35.83;16.50;;;;;;;10.05;88.81;102534.81;5048215;28;20495;-82
2021/10/23 08:54:58;;;;;;;33.28;18.10;;;;;;;9.98;88.29;102538.75;5052452;28;20037;-83
2021/10/23 08:57:27;;;;;;;33.75;17.90;;;;;;;9.94;89.27;102541.59;5053325;28;20039;-83
2021/10/23 08:59:54;;;;;;;33.42;17.00;;;;;;;10.03;89.01;102549.63;5037149;28;20693;-82
2021/10/23 09:02:23;;;;;;;30.35;16.65;;;;;;;9.94;89.53;102549.38;5027771;28;20036;-83
2021/10/23 09:04:50;;;;;;;34.67;17.00;;;;;;;9.98;90.16;102551.72;5016688;28;20037;-83
2021/10/23 09:07:17;;;;;;;38.42;18.08;;;;;;;9.92;90.33;102553.81;5035328;28;20040;-83
2021/10/23 09:09:44;;;;;;;31.65;15.82;;;;;;;9.96;90.37;102559.59;5035158;28;20037;-85
2021/10/23 09:12:18;;;;;;;36.40;18.80;;;;;;;10.03;89.99;102560.81;5033133;28;20124;-83
2021/10/23 09:14:44;;;;;;;33.83;17.98;;;;;;;10.12;90.01;102560.16;5018598;28;20534;-83
2021/10/23 09:17:14;;;;;;;35.90;19.73;;;;;;;10.24;89.80;102555.84;5040454;28;20041;-82
2021/10/23 09:19:44;;;;;;;30.17;17.15;;;;;;;10.37;89.10;102560.19;5040684;28;20514;-82
2021/10/23 09:22:32;;;;;;;48.88;21.92;;;;;;;10.36;88.94;102559.38;5038757;28;20034;-82
2021/10/23 09:25:26;;;;;;;59.35;24.30;;;;;;;10.34;89.54;102561.25;5054178;28;20048;-81
2021/10/23 09:28:04;;;;;;;46.53;23.90;;;;;;;10.37;88.83;102562.78;5030430;28;20062;-83
2021/10/23 09:30:38;;;;;;;52.67;23.52;;;;;;;10.42;88.65;102564.13;5042403;28;20029;-83
2021/10/23 09:33:18;;;;;;;44.75;22.77;;;;;;;10.51;88.15;102571.22;5058063;28;20061;-84
2021/10/23 09:35:46;;;;;;;48.35;20.90;;;;;;;10.58;87.38;102570.75;5024662;28;20041;-82
2021/10/23 09:38:18;;;;;;;39.20;20.77;;;;;;;10.47;87.30;102577.59;5026711;28;20029;-83
2021/10/23 09:40:45;;;;;;;38.20;18.47;;;;;;;10.47;87.58;102576.72;5041452;28;20459;-83
2021/10/23 09:43:22;;;;;;;30.02;16.77;;;;;;;10.48;87.77;102581.81;5041077;28;20045;-82
2021/10/23 09:46:01;;;;;;;51.40;23.95;;;;;;;10.50;88.06;102579.94;5044521;28;20494;-84
2021/10/23 09:48:38;;;;;;;44.10;21.63;;;;;;;10.58;88.32;102583.72;5061769;28;20120;-82
2021/10/23 09:51:26;;;;;;;36.42;18.55;;;;;;;10.62;87.74;102585.16;5059722;28;20038;-81
2021/10/23 09:53:54;;;;;;;42.80;20.35;;;;;;;10.69;86.99;102581.19;5042530;28;20086;-82
2021/10/23 09:56:28;;;;;;;76.85;27.50;;;;;;;10.77;86.88;102586.63;5059606;28;20040;-82
2021/10/23 09:59:08;;;;;;;68.82;26.80;;;;;;;10.89;87.16;102587.50;5043620;28;20033;-83
2021/10/23 10:01:40;;;;;;;37.58;18.60;;;;;;;10.92;87.13;102592.44;5042430;28;20033;-83
2021/10/23 10:04:07;;;;;;;45.87;20.43;;;;;;;11.04;85.74;102591.53;5058458;28;20043;-83
2021/10/23 10:06:53;;;;;;;103.80;37.75;;;;;;;11.07;84.89;102593.06;5024884;28;20028;-82
2021/10/23 10:09:23;;;;;;;65.82;25.83;;;;;;;11.05;84.20;102600.13;5009874;28;20065;-82
2021/10/23 10:11:50;;;;;;;39.35;17.13;;;;;;;11.04;84.18;102596.72;5023931;28;20037;-82
2021/10/23 10:14:20;;;;;;;46.85;20.23;;;;;;;11.03;84.69;102602.84;5059680;28;20049;-82
2021/10/23 10:16:47;;;;;;;39.83;19.45;;;;;;;11.07;84.45;102596.47;5024672;28;20085;-82
2021/10/23 10:19:14;;;;;;;37.13;15.93;;;;;;;11.08;84.30;102600.75;5044559;28;20116;-82
2021/10/23 10:21:42;;;;;;;46.60;22.48;;;;;;;11.13;84.94;102605.56;5060407;28;20018;-81
2021/10/23 10:24:19;;;;;;;28.83;14.68;;;;;;;11.22;83.85;102598.88;5043381;28;20055;-81
2021/10/23 10:27:09;;;;;;;26.27;14.07;;;;;;;11.31;83.02;102592.97;5060980;28;20107;-82
2021/10/23 10:34:06;;;;;;;29.92;13.38;;;;;;;11.50;82.18;102602.78;5038225;28;20102;-81
2021/10/23 10:42:56;;;;;;;38.78;18.05;;;;;;;11.73;81.96;102605.38;5062196;28;20030;-82
2021/10/23 10:45:28;;;;;;;37.72;20.17;;;;;;;11.60;81.31;102605.50;5053616;28;20080;-82
2021/10/23 10:48:21;;;;;;;32.30;13.93;;;;;;;11.55;81.42;102600.66;5064093;28;20036;-82
2021/10/23 10:50:49;;;;;;;21.45;9.45;;;;;;;11.57;80.00;102603.97;5047033;28;20495;-82
2021/10/23 10:53:29;;;;;;;24.42;10.40;;;;;;;11.62;80.42;102601.00;5065483;28;20037;-82
2021/10/23 10:56:05;;;;;;;21.42;10.43;;;;;;;11.69;80.44;102600.41;5049909;28;20116;-82
2021/10/23 10:58:49;;;;;;;20.08;9.75;;;;;;;11.74;78.60;102597.47;5065263;28;20033;-82
2021/10/23 11:01:19;;;;;;;21.70;9.65;;;;;;;11.69;77.84;102597.81;5046888;28;20029;-83
2021/10/23 11:04:10;;;;;;;26.98;10.18;;;;;;;11.65;79.21;102603.38;5030414;28;20030;-82
2021/10/23 11:06:35;;;;;;;24.58;8.48;;;;;;;11.70;79.14;102598.66;5034709;28;20037;-82
2021/10/23 11:09:16;;;;;;;22.25;8.10;;;;;;;11.69;79.43;102592.59;5062611;28;20037;-83
2021/10/23 11:11:45;;;;;;;14.60;6.13;;;;;;;11.69;78.79;102595.19;5066731;28;20237;-82
2021/10/23 11:14:10;;;;;;;12.80;6.40;;;;;;;11.69;78.56;102595.19;5060623;28;20441;-82
2021/10/23 11:16:38;;;;;;;12.07;5.60;;;;;;;11.75;78.58;102590.47;5058933;28;20053;-82
2021/10/23 11:19:04;;;;;;;12.27;5.72;;;;;;;11.77;78.70;102591.19;5057402;28;20026;-83
2021/10/23 11:21:32;;;;;;;13.02;5.03;;;;;;;11.82;78.14;102595.06;5059513;28;20083;-82
2021/10/23 11:23:58;;;;;;;15.07;5.38;;;;;;;11.83;77.70;102591.53;5057453;28;20057;-82
2021/10/23 11:26:23;;;;;;;17.13;5.78;;;;;;;11.90;78.20;102591.91;5057648;28;20068;-82
2021/10/23 11:28:50;;;;;;;14.70;4.93;;;;;;;11.85;78.75;102589.66;5056654;28;20522;-82